sensor_id;sensor_type;location;lat;lon;timestamp;pressure;altitude;pressure_sealevel;temperature;humidity
49611;BME280;35515;48.766;9.176;2022-07-29T00:01:14;98173.72;;;21.69;75.55
49611;BME280;35515;48.766;9.176;2022-07-29T00:03:41;98161.53;;;21.75;75.14
49611;BME280;35515;48.766;9.176;2022-07-29T00:06:07;98161.94;;;21.63;75.86
49611;BME280;35515;48.766;9.176;2022-07-29T00:08:34;98156.44;;;21.58;76.42
49611;BME280;35515;48.766;9.176;2022-07-29T00:11:01;98156.16;;;21.60;76.95
49611;BME280;35515;48.766;9.176;2022-07-29T00:13:29;98150.47;;;21.80;75.05
49611;BME280;35515;48.766;9.176;2022-07-29T00:15:56;98143.56;;;21.83;74.33
49611;BME280;35515;48.766;9.176;2022-07-29T00:18:22;98150.03;;;21.68;75.25
49611;BME280;35515;48.766;9.176;2022-07-29T00:20:49;98145.06;;;21.70;75.03
49611;BME280;35515;48.766;9.176;2022-07-29T00:23:15;98137.63;;;21.65;76.72
49611;BME280;35515;48.766;9.176;2022-07-29T00:25:42;98129.59;;;21.74;74.85
49611;BME280;35515;48.766;9.176;2022-07-29T00:28:09;98141.69;;;21.78;74.76
49611;BME280;35515;48.766;9.176;2022-07-29T00:30:36;98142.56;;;21.68;75.24
49611;BME280;35515;48.766;9.176;2022-07-29T00:33:03;98144.50;;;21.68;75.47
49611;BME280;35515;48.766;9.176;2022-07-29T00:35:30;98136.25;;;21.68;76.03
49611;BME280;35515;48.766;9.176;2022-07-29T00:38:12;98143.97;;;21.66;76.55
49611;BME280;35515;48.766;9.176;2022-07-29T00:40:39;98140.03;;;21.77;74.80
49611;BME280;35515;48.766;9.176;2022-07-29T00:43:06;98145.31;;;21.68;75.18
49611;BME280;35515;48.766;9.176;2022-07-29T00:45:33;98128.78;;;21.68;75.77
49611;BME280;35515;48.766;9.176;2022-07-29T00:48:01;98134.13;;;21.54;77.64
49611;BME280;35515;48.766;9.176;2022-07-29T00:50:28;98138.84;;;21.49;77.05
49611;BME280;35515;48.766;9.176;2022-07-29T00:52:55;98133.03;;;21.56;76.45
49611;BME280;35515;48.766;9.176;2022-07-29T00:55:22;98136.59;;;21.56;75.87
49611;BME280;35515;48.766;9.176;2022-07-29T00:57:48;98128.03;;;21.58;76.32
49611;BME280;35515;48.766;9.176;2022-07-29T01:00:17;98131.09;;;21.51;76.66
49611;BME280;35515;48.766;9.176;2022-07-29T01:02:44;98130.28;;;21.50;76.39
49611;BME280;35515;48.766;9.176;2022-07-29T01:05:17;98115.38;;;21.57;75.90
49611;BME280;35515;48.766;9.176;2022-07-29T01:07:44;98117.59;;;21.49;76.37
49611;BME280;35515;48.766;9.176;2022-07-29T01:10:13;98114.84;;;21.49;76.30
49611;BME280;35515;48.766;9.176;2022-07-29T01:12:40;98120.34;;;21.54;75.63
49611;BME280;35515;48.766;9.176;2022-07-29T01:15:09;98115.38;;;21.51;75.68
49611;BME280;35515;48.766;9.176;2022-07-29T01:17:41;98117.84;;;21.53;75.42
49611;BME280;35515;48.766;9.176;2022-07-29T01:20:13;98119.84;;;21.47;76.08
49611;BME280;35515;48.766;9.176;2022-07-29T01:23:07;98106.59;;;21.44;76.20
49611;BME280;35515;48.766;9.176;2022-07-29T01:25:54;98115.72;;;21.45;76.06
49611;BME280;35515;48.766;9.176;2022-07-29T01:28:46;98103.94;;;21.34;77.20
49611;BME280;35515;48.766;9.176;2022-07-29T01:31:19;98106.63;;;21.39;75.72
49611;BME280;35515;48.766;9.176;2022-07-29T01:33:51;98098.97;;;21.31;76.52
49611;BME280;35515;48.766;9.176;2022-07-29T01:36:23;98117.09;;;21.42;75.16
49611;BME280;35515;48.766;9.176;2022-07-29T01:38:58;98116.59;;;21.35;75.63
49611;BME280;35515;48.766;9.176;2022-07-29T01:41:31;98111.34;;;21.38;75.30
49611;BME280;35515;48.766;9.176;2022-07-29T01:44:02;98111.38;;;21.33;75.55
49611;BME280;35515;48.766;9.176;2022-07-29T01:46:39;98115.81;;;21.24;76.18
49611;BME280;35515;48.766;9.176;2022-07-29T01:49:11;98101.78;;;21.20;76.71
49611;BME280;35515;48.766;9.176;2022-07-29T01:51:43;98102.91;;;21.19;76.30
49611;BME280;35515;48.766;9.176;2022-07-29T01:54:16;98100.69;;;21.21;75.68
49611;BME280;35515;48.766;9.176;2022-07-29T01:56:47;98110.56;;;21.28;75.04
49611;BME280;35515;48.766;9.176;2022-07-29T01:59:16;98112.31;;;21.13;75.51
49611;BME280;35515;48.766;9.176;2022-07-29T02:01:45;98104.06;;;21.08;76.00
49611;BME280;35515;48.766;9.176;2022-07-29T02:04:14;98115.09;;;21.03;76.36
49611;BME280;35515;48.766;9.176;2022-07-29T02:06:42;98104.09;;;21.03;75.99
49611;BME280;35515;48.766;9.176;2022-07-29T02:09:12;98103.28;;;21.02;76.01
49611;BME280;35515;48.766;9.176;2022-07-29T02:11:47;98096.09;;;21.07;75.84
49611;BME280;35515;48.766;9.176;2022-07-29T02:14:15;98089.19;;;21.14;74.97
49611;BME280;35515;48.766;9.176;2022-07-29T02:16:44;98096.13;;;21.01;76.82
49611;BME280;35515;48.766;9.176;2022-07-29T02:19:14;98095.28;;;21.06;75.70
49611;BME280;35515;48.766;9.176;2022-07-29T02:21:42;98082.31;;;21.07;75.46
49611;BME280;35515;48.766;9.176;2022-07-29T02:24:11;98074.63;;;21.09;75.16
49611;BME280;35515;48.766;9.176;2022-07-29T02:26:39;98078.75;;;21.06;75.64
49611;BME280;35515;48.766;9.176;2022-07-29T02:29:08;98077.63;;;21.07;75.02
49611;BME280;35515;48.766;9.176;2022-07-29T02:31:38;98078.19;;;21.09;75.16
49611;BME280;35515;48.766;9.176;2022-07-29T02:34:07;98086.41;;;21.19;74.31
49611;BME280;35515;48.766;9.176;2022-07-29T02:36:34;98082.81;;;21.14;74.45
49611;BME280;35515;48.766;9.176;2022-07-29T02:39:02;98083.13;;;21.07;75.28
49611;BME280;35515;48.766;9.176;2022-07-29T02:41:35;98088.41;;;21.03;75.45
49611;BME280;35515;48.766;9.176;2022-07-29T02:44:06;98081.31;;;20.92;76.79
49611;BME280;35515;48.766;9.176;2022-07-29T02:46:38;98083.78;;;20.88;76.90
49611;BME280;35515;48.766;9.176;2022-07-29T02:49:10;98092.03;;;20.88;77.24
49611;BME280;35515;48.766;9.176;2022-07-29T02:51:41;98091.50;;;20.92;76.60
49611;BME280;35515;48.766;9.176;2022-07-29T02:54:11;98091.25;;;20.83;77.17
49611;BME280;35515;48.766;9.176;2022-07-29T02:56:44;98090.47;;;20.67;78.28
49611;BME280;35515;48.766;9.176;2022-07-29T02:59:13;98092.13;;;20.63;78.58
49611;BME280;35515;48.766;9.176;2022-07-29T03:01:42;98090.22;;;20.63;77.73
49611;BME280;35515;48.766;9.176;2022-07-29T03:04:11;98098.19;;;20.65;78.13
49611;BME280;35515;48.766;9.176;2022-07-29T03:06:40;98097.66;;;20.58;78.84
49611;BME280;35515;48.766;9.176;2022-07-29T03:09:07;98095.47;;;20.70;76.80
49611;BME280;35515;48.766;9.176;2022-07-29T03:11:34;98093.50;;;20.60;78.23
49611;BME280;35515;48.766;9.176;2022-07-29T03:14:02;98103.16;;;20.73;77.34
49611;BME280;35515;48.766;9.176;2022-07-29T03:16:29;98102.59;;;20.71;77.08
49611;BME280;35515;48.766;9.176;2022-07-29T03:18:57;98101.78;;;20.70;76.92
49611;BME280;35515;48.766;9.176;2022-07-29T03:21:24;98104.78;;;20.79;76.51
49611;BME280;35515;48.766;9.176;2022-07-29T03:23:51;98102.50;;;20.92;75.05
49611;BME280;35515;48.766;9.176;2022-07-29T03:26:18;98101.44;;;20.82;75.80
49611;BME280;35515;48.766;9.176;2022-07-29T03:28:45;98100.97;;;20.70;77.24
49611;BME280;35515;48.766;9.176;2022-07-29T03:31:12;98097.66;;;20.58;77.56
49611;BME280;35515;48.766;9.176;2022-07-29T03:33:38;98103.66;;;20.75;77.10
49611;BME280;35515;48.766;9.176;2022-07-29T03:36:06;98104.81;;;20.59;77.30
49611;BME280;35515;48.766;9.176;2022-07-29T03:38:34;98102.56;;;20.66;77.45
49611;BME280;35515;48.766;9.176;2022-07-29T03:41:05;98099.03;;;20.70;77.03
49611;BME280;35515;48.766;9.176;2022-07-29T03:43:37;98104.53;;;20.60;77.16
49611;BME280;35515;48.766;9.176;2022-07-29T03:46:05;98119.13;;;20.55;77.79
49611;BME280;35515;48.766;9.176;2022-07-29T03:48:34;98102.88;;;20.59;77.41
49611;BME280;35515;48.766;9.176;2022-07-29T03:51:03;98110.88;;;20.55;78.06
49611;BME280;35515;48.766;9.176;2022-07-29T03:53:32;98115.53;;;20.65;77.19
49611;BME280;35515;48.766;9.176;2022-07-29T03:56:02;98111.38;;;20.68;76.82
49611;BME280;35515;48.766;9.176;2022-07-29T03:58:30;98112.78;;;20.55;77.71
49611;BME280;35515;48.766;9.176;2022-07-29T04:00:58;98115.53;;;20.55;77.53
49611;BME280;35515;48.766;9.176;2022-07-29T04:03:25;98117.50;;;20.39;79.02
49611;BME280;35515;48.766;9.176;2022-07-29T04:05:59;98122.50;;;20.32;79.49
49611;BME280;35515;48.766;9.176;2022-07-29T04:08:26;98123.59;;;20.31;79.26
49611;BME280;35515;48.766;9.176;2022-07-29T04:10:54;98124.16;;;20.33;78.90
49611;BME280;35515;48.766;9.176;2022-07-29T04:13:20;98124.94;;;20.44;78.08
49611;BME280;35515;48.766;9.176;2022-07-29T04:15:47;98120.25;;;20.49;77.37
49611;BME280;35515;48.766;9.176;2022-07-29T04:18:13;98126.91;;;20.38;78.58
49611;BME280;35515;48.766;9.176;2022-07-29T04:20:40;98127.44;;;20.35;78.86
49611;BME280;35515;48.766;9.176;2022-07-29T04:23:06;98123.31;;;20.32;78.70
49611;BME280;35515;48.766;9.176;2022-07-29T04:25:36;98127.72;;;20.23;79.81
49611;BME280;35515;48.766;9.176;2022-07-29T04:28:05;98123.03;;;20.34;78.88
49611;BME280;35515;48.766;9.176;2022-07-29T04:30:32;98122.19;;;20.38;77.92
49611;BME280;35515;48.766;9.176;2022-07-29T04:32:59;98124.97;;;20.33;78.16
49611;BME280;35515;48.766;9.176;2022-07-29T04:35:26;98118.59;;;20.43;77.17
49611;BME280;35515;48.766;9.176;2022-07-29T04:37:53;98126.03;;;20.37;77.78
49611;BME280;35515;48.766;9.176;2022-07-29T04:40:20;98113.09;;;20.43;77.28
49611;BME280;35515;48.766;9.176;2022-07-29T04:42:46;98126.03;;;20.37;77.05
49611;BME280;35515;48.766;9.176;2022-07-29T04:45:14;98120.84;;;20.31;77.86
49611;BME280;35515;48.766;9.176;2022-07-29T04:47:41;98118.34;;;20.40;77.93
49611;BME280;35515;48.766;9.176;2022-07-29T04:50:08;98116.44;;;20.30;78.12
49611;BME280;35515;48.766;9.176;2022-07-29T04:52:35;98121.69;;;20.31;77.93
49611;BME280;35515;48.766;9.176;2022-07-29T04:55:02;98124.16;;;20.33;78.01
49611;BME280;35515;48.766;9.176;2022-07-29T04:57:28;98128.22;;;20.46;77.11
49611;BME280;35515;48.766;9.176;2022-07-29T04:59:55;98125.22;;;20.47;76.45
49611;BME280;35515;48.766;9.176;2022-07-29T05:02:23;98131.81;;;20.51;75.94
49611;BME280;35515;48.766;9.176;2022-07-29T05:04:49;98131.25;;;20.49;76.29
49611;BME280;35515;48.766;9.176;2022-07-29T05:07:16;98134.56;;;20.57;75.49
49611;BME280;35515;48.766;9.176;2022-07-29T05:09:42;98129.88;;;20.52;76.46
49611;BME280;35515;48.766;9.176;2022-07-29T05:12:09;98129.59;;;20.53;77.05
49611;BME280;35515;48.766;9.176;2022-07-29T05:14:36;98134.56;;;20.46;76.63
49611;BME280;35515;48.766;9.176;2022-07-29T05:17:02;98132.91;;;20.50;76.02
49611;BME280;35515;48.766;9.176;2022-07-29T05:19:30;98135.06;;;20.64;75.01
49611;BME280;35515;48.766;9.176;2022-07-29T05:21:57;98131.75;;;20.62;75.87
49611;BME280;35515;48.766;9.176;2022-07-29T05:24:25;98133.72;;;20.56;75.27
49611;BME280;35515;48.766;9.176;2022-07-29T05:26:51;98121.03;;;20.70;74.20
49611;BME280;35515;48.766;9.176;2022-07-29T05:29:18;98124.06;;;20.64;74.00
49611;BME280;35515;48.766;9.176;2022-07-29T05:31:45;98130.66;;;20.78;73.48
49611;BME280;35515;48.766;9.176;2022-07-29T05:34:11;98136.09;;;20.88;72.91
49611;BME280;35515;48.766;9.176;2022-07-29T05:36:39;98124.53;;;20.92;72.10
49611;BME280;35515;48.766;9.176;2022-07-29T05:39:06;98125.06;;;20.94;72.23
49611;BME280;35515;48.766;9.176;2022-07-29T05:41:32;98130.06;;;20.81;72.01
49611;BME280;35515;48.766;9.176;2022-07-29T05:43:59;98133.91;;;20.91;71.98
49611;BME280;35515;48.766;9.176;2022-07-29T05:46:25;98124.53;;;20.97;72.19
49611;BME280;35515;48.766;9.176;2022-07-29T05:48:52;98124.75;;;21.05;72.10
49611;BME280;35515;48.766;9.176;2022-07-29T05:51:19;98125.78;;;21.15;71.48
49611;BME280;35515;48.766;9.176;2022-07-29T05:53:48;98134.06;;;21.15;71.32
49611;BME280;35515;48.766;9.176;2022-07-29T05:56:14;98136.50;;;21.21;70.57
49611;BME280;35515;48.766;9.176;2022-07-29T05:58:41;98135.66;;;21.26;70.54
49611;BME280;35515;48.766;9.176;2022-07-29T06:01:08;98137.00;;;21.34;70.15
49611;BME280;35515;48.766;9.176;2022-07-29T06:03:35;98133.38;;;21.38;69.56
49611;BME280;35515;48.766;9.176;2022-07-29T06:06:03;98127.06;;;21.38;69.63
49611;BME280;35515;48.766;9.176;2022-07-29T06:08:29;98135.56;;;21.42;69.44
49611;BME280;35515;48.766;9.176;2022-07-29T06:10:58;98135.84;;;21.40;70.07
49611;BME280;35515;48.766;9.176;2022-07-29T06:13:24;98142.41;;;21.54;69.54
49611;BME280;35515;48.766;9.176;2022-07-29T06:15:51;98149.78;;;21.59;68.99
49611;BME280;35515;48.766;9.176;2022-07-29T06:18:18;98152.00;;;21.62;69.26
49611;BME280;35515;48.766;9.176;2022-07-29T06:20:46;98152.19;;;21.71;68.54
49611;BME280;35515;48.766;9.176;2022-07-29T06:23:12;98148.41;;;21.62;68.98
49611;BME280;35515;48.766;9.176;2022-07-29T06:25:39;98159.94;;;21.69;69.21
49611;BME280;35515;48.766;9.176;2022-07-29T06:28:07;98152.13;;;21.81;68.94
49611;BME280;35515;48.766;9.176;2022-07-29T06:30:34;98154.59;;;21.83;68.07
49611;BME280;35515;48.766;9.176;2022-07-29T06:33:00;98153.75;;;21.87;67.99
49611;BME280;35515;48.766;9.176;2022-07-29T06:35:27;98165.84;;;21.92;67.52
49611;BME280;35515;48.766;9.176;2022-07-29T06:37:54;98157.50;;;22.02;67.64
49611;BME280;35515;48.766;9.176;2022-07-29T06:40:21;98152.22;;;22.05;67.59
49611;BME280;35515;48.766;9.176;2022-07-29T06:43:05;98153.13;;;21.96;67.69
49611;BME280;35515;48.766;9.176;2022-07-29T06:45:34;98161.91;;;21.98;67.93
49611;BME280;35515;48.766;9.176;2022-07-29T06:48:01;98162.19;;;22.01;67.70
49611;BME280;35515;48.766;9.176;2022-07-29T06:50:28;98163.50;;;22.09;67.73
49611;BME280;35515;48.766;9.176;2022-07-29T06:52:54;98157.44;;;22.07;67.53
49611;BME280;35515;48.766;9.176;2022-07-29T06:55:21;98160.16;;;22.12;67.53
49611;BME280;35515;48.766;9.176;2022-07-29T06:57:47;98156.75;;;22.20;67.35
49611;BME280;35515;48.766;9.176;2022-07-29T07:00:14;98162.19;;;22.31;67.14
49611;BME280;35515;48.766;9.176;2022-07-29T07:02:42;98160.78;;;22.33;67.09
49611;BME280;35515;48.766;9.176;2022-07-29T07:05:09;98164.38;;;22.34;67.23
49611;BME280;35515;48.766;9.176;2022-07-29T07:07:35;98170.72;;;22.40;67.45
49611;BME280;35515;48.766;9.176;2022-07-29T07:10:03;98164.59;;;22.43;66.71
49611;BME280;35515;48.766;9.176;2022-07-29T07:12:29;98161.25;;;22.46;66.73
49611;BME280;35515;48.766;9.176;2022-07-29T07:14:56;98169.25;;;22.47;66.53
49611;BME280;35515;48.766;9.176;2022-07-29T07:17:23;98167.00;;;22.49;66.38
49611;BME280;35515;48.766;9.176;2022-07-29T07:19:50;98169.47;;;22.51;66.56
49611;BME280;35515;48.766;9.176;2022-07-29T07:22:17;98173.59;;;22.53;66.49
49611;BME280;35515;48.766;9.176;2022-07-29T07:24:44;98176.66;;;22.52;67.14
49611;BME280;35515;48.766;9.176;2022-07-29T07:27:10;98176.91;;;22.56;67.00
49611;BME280;35515;48.766;9.176;2022-07-29T07:29:37;98176.31;;;22.59;66.80
49611;BME280;35515;48.766;9.176;2022-07-29T07:32:06;98179.41;;;22.52;66.45
49611;BME280;35515;48.766;9.176;2022-07-29T07:34:33;98184.34;;;22.55;66.13
49611;BME280;35515;48.766;9.176;2022-07-29T07:37:01;98180.41;;;22.61;66.48
49611;BME280;35515;48.766;9.176;2022-07-29T07:39:27;98180.41;;;22.61;66.24
49611;BME280;35515;48.766;9.176;2022-07-29T07:41:54;98178.72;;;22.65;66.19
49611;BME280;35515;48.766;9.176;2022-07-29T07:44:21;98180.13;;;22.63;66.39
49611;BME280;35515;48.766;9.176;2022-07-29T07:46:47;98184.25;;;22.65;66.65
49611;BME280;35515;48.766;9.176;2022-07-29T07:49:14;98178.06;;;22.74;66.73
49611;BME280;35515;48.766;9.176;2022-07-29T07:51:40;98182.72;;;22.78;66.17
49611;BME280;35515;48.766;9.176;2022-07-29T07:54:08;98178.22;;;22.87;65.62
49611;BME280;35515;48.766;9.176;2022-07-29T07:56:35;98181.03;;;22.82;65.49
49611;BME280;35515;48.766;9.176;2022-07-29T07:59:02;98187.91;;;22.85;65.47
49611;BME280;35515;48.766;9.176;2022-07-29T08:01:28;98180.44;;;22.85;65.60
49611;BME280;35515;48.766;9.176;2022-07-29T08:03:55;98177.09;;;22.88;65.70
49611;BME280;35515;48.766;9.176;2022-07-29T08:06:21;98184.53;;;22.88;65.65
49611;BME280;35515;48.766;9.176;2022-07-29T08:08:49;98183.78;;;22.82;64.73
49611;BME280;35515;48.766;9.176;2022-07-29T08:11:17;98184.28;;;22.84;64.56
49611;BME280;35515;48.766;9.176;2022-07-29T08:13:43;98183.13;;;22.91;64.62
49611;BME280;35515;48.766;9.176;2022-07-29T08:16:12;98185.47;;;23.02;63.72
49611;BME280;35515;48.766;9.176;2022-07-29T08:18:41;98181.00;;;23.07;63.58
49611;BME280;35515;48.766;9.176;2022-07-29T08:21:08;98182.13;;;23.05;63.37
49611;BME280;35515;48.766;9.176;2022-07-29T08:23:34;98181.72;;;23.17;62.49
49611;BME280;35515;48.766;9.176;2022-07-29T08:26:04;98181.06;;;23.26;61.47
49611;BME280;35515;48.766;9.176;2022-07-29T08:28:32;98183.63;;;23.22;59.94
49611;BME280;35515;48.766;9.176;2022-07-29T08:30:58;98182.53;;;23.42;58.47
49611;BME280;35515;48.766;9.176;2022-07-29T08:33:25;98189.09;;;23.65;58.15
49611;BME280;35515;48.766;9.176;2022-07-29T08:35:51;98181.66;;;23.66;58.64
49611;BME280;35515;48.766;9.176;2022-07-29T08:38:18;98185.22;;;23.47;59.09
49611;BME280;35515;48.766;9.176;2022-07-29T08:40:44;98177.13;;;23.32;59.68
49611;BME280;35515;48.766;9.176;2022-07-29T08:43:12;98175.34;;;23.41;59.86
49611;BME280;35515;48.766;9.176;2022-07-29T08:45:45;98182.47;;;23.47;59.72
49611;BME280;35515;48.766;9.176;2022-07-29T08:48:12;98177.69;;;23.53;59.61
49611;BME280;35515;48.766;9.176;2022-07-29T08:50:39;98182.69;;;23.70;59.19
49611;BME280;35515;48.766;9.176;2022-07-29T08:53:10;98176.94;;;23.66;58.63
49611;BME280;35515;48.766;9.176;2022-07-29T08:55:39;98171.69;;;23.65;59.27
49611;BME280;35515;48.766;9.176;2022-07-29T08:58:07;98180.50;;;23.67;58.99
49611;BME280;35515;48.766;9.176;2022-07-29T09:00:35;98177.22;;;23.65;58.54
49611;BME280;35515;48.766;9.176;2022-07-29T09:03:04;98177.75;;;23.67;59.17
49611;BME280;35515;48.766;9.176;2022-07-29T09:05:32;98175.56;;;23.83;57.55
49611;BME280;35515;48.766;9.176;2022-07-29T09:07:59;98183.66;;;23.79;58.14
49611;BME280;35515;48.766;9.176;2022-07-29T09:10:26;98180.75;;;23.90;57.39
49611;BME280;35515;48.766;9.176;2022-07-29T09:12:54;98187.16;;;24.04;55.86
49611;BME280;35515;48.766;9.176;2022-07-29T09:15:21;98185.09;;;23.96;55.08
49611;BME280;35515;48.766;9.176;2022-07-29T09:17:49;98176.88;;;23.91;55.28
49611;BME280;35515;48.766;9.176;2022-07-29T09:20:19;98176.06;;;23.90;55.64
49611;BME280;35515;48.766;9.176;2022-07-29T09:22:46;98183.06;;;24.01;54.91
49611;BME280;35515;48.766;9.176;2022-07-29T09:25:14;98178.56;;;24.06;55.16
49611;BME280;35515;48.766;9.176;2022-07-29T09:27:49;98180.84;;;24.17;54.52
49611;BME280;35515;48.766;9.176;2022-07-29T09:30:16;98187.44;;;24.21;54.50
49611;BME280;35515;48.766;9.176;2022-07-29T09:32:57;98176.50;;;24.30;53.77
49611;BME280;35515;48.766;9.176;2022-07-29T09:35:27;98172.38;;;24.28;53.50
49611;BME280;35515;48.766;9.176;2022-07-29T09:37:54;98169.00;;;24.31;53.80
49611;BME280;35515;48.766;9.176;2022-07-29T09:40:23;98178.34;;;24.35;53.31
49611;BME280;35515;48.766;9.176;2022-07-29T09:42:50;98172.13;;;24.43;52.76
49611;BME280;35515;48.766;9.176;2022-07-29T09:45:29;98167.00;;;24.50;52.69
49611;BME280;35515;48.766;9.176;2022-07-29T09:47:56;98161.88;;;24.58;52.90
49611;BME280;35515;48.766;9.176;2022-07-29T09:50:36;98160.69;;;24.64;52.49
49611;BME280;35515;48.766;9.176;2022-07-29T09:53:03;98160.38;;;24.65;52.62
49611;BME280;35515;48.766;9.176;2022-07-29T09:55:29;98163.19;;;24.79;51.65
49611;BME280;35515;48.766;9.176;2022-07-29T09:58:14;98165.22;;;24.87;51.76
49611;BME280;35515;48.766;9.176;2022-07-29T10:00:42;98160.72;;;24.92;52.06
49611;BME280;35515;48.766;9.176;2022-07-29T10:03:08;98151.44;;;24.96;51.22
49611;BME280;35515;48.766;9.176;2022-07-29T10:05:36;98147.34;;;25.08;50.49
49611;BME280;35515;48.766;9.176;2022-07-29T10:08:04;98152.38;;;25.19;50.46
49611;BME280;35515;48.766;9.176;2022-07-29T10:10:33;98158.34;;;25.13;50.62
49611;BME280;35515;48.766;9.176;2022-07-29T10:13:01;98160.16;;;25.17;49.88
49611;BME280;35515;48.766;9.176;2022-07-29T10:15:29;98148.47;;;25.20;49.15
49611;BME280;35515;48.766;9.176;2022-07-29T10:17:58;98154.72;;;25.12;49.45
49611;BME280;35515;48.766;9.176;2022-07-29T10:20:26;98156.38;;;25.13;48.32
49611;BME280;35515;48.766;9.176;2022-07-29T10:22:55;98148.47;;;25.07;48.42
49611;BME280;35515;48.766;9.176;2022-07-29T10:25:23;98142.84;;;24.98;48.88
49611;BME280;35515;48.766;9.176;2022-07-29T10:27:51;98146.94;;;24.86;49.42
49611;BME280;35515;48.766;9.176;2022-07-29T10:30:19;98140.28;;;24.87;49.53
49611;BME280;35515;48.766;9.176;2022-07-29T10:32:57;98145.72;;;24.93;49.56
49611;BME280;35515;48.766;9.176;2022-07-29T10:36:04;98146.03;;;24.91;50.04
49611;BME280;35515;48.766;9.176;2022-07-29T10:38:47;98147.97;;;24.91;51.14
49611;BME280;35515;48.766;9.176;2022-07-29T10:41:28;98147.56;;;24.83;51.97
49611;BME280;35515;48.766;9.176;2022-07-29T10:44:02;98142.75;;;24.89;52.13
49611;BME280;35515;48.766;9.176;2022-07-29T10:46:35;98150.84;;;24.72;54.56
49611;BME280;35515;48.766;9.176;2022-07-29T10:49:06;98144.47;;;24.71;55.66
49611;BME280;35515;48.766;9.176;2022-07-29T10:51:58;98161.38;;;24.56;59.24
49611;BME280;35515;48.766;9.176;2022-07-29T10:54:44;98178.03;;;23.84;67.91
49611;BME280;35515;48.766;9.176;2022-07-29T10:57:23;98185.72;;;23.49;75.05
49611;BME280;35515;48.766;9.176;2022-07-29T11:00:30;98176.56;;;22.86;78.45
49611;BME280;35515;48.766;9.176;2022-07-29T11:02:58;98196.22;;;23.04;77.68
49611;BME280;35515;48.766;9.176;2022-07-29T11:05:26;98216.66;;;22.54;75.30
49611;BME280;35515;48.766;9.176;2022-07-29T11:08:17;98214.28;;;22.03;78.65
49611;BME280;35515;48.766;9.176;2022-07-29T11:10:47;98209.50;;;21.79;81.06
49611;BME280;35515;48.766;9.176;2022-07-29T11:16:11;98250.06;;;22.13;83.18
49611;BME280;35515;48.766;9.176;2022-07-29T11:21:41;98224.31;;;21.33;85.16
49611;BME280;35515;48.766;9.176;2022-07-29T11:24:12;98223.72;;;21.47;85.20
49611;BME280;35515;48.766;9.176;2022-07-29T11:26:40;98221.16;;;21.66;85.77
49611;BME280;35515;48.766;9.176;2022-07-29T11:29:16;98226.75;;;21.45;88.85
49611;BME280;35515;48.766;9.176;2022-07-29T11:31:46;98225.94;;;21.45;88.87
49611;BME280;35515;48.766;9.176;2022-07-29T11:34:23;98216.81;;;21.44;86.10
49611;BME280;35515;48.766;9.176;2022-07-29T11:37:18;98213.47;;;21.58;86.79
49611;BME280;35515;48.766;9.176;2022-07-29T11:39:47;98220.19;;;21.31;89.07
49611;BME280;35515;48.766;9.176;2022-07-29T11:42:48;98208.69;;;21.24;92.01
49611;BME280;35515;48.766;9.176;2022-07-29T11:45:20;98210.56;;;21.28;89.85
49611;BME280;35515;48.766;9.176;2022-07-29T11:47:50;98212.22;;;21.29;90.62
49611;BME280;35515;48.766;9.176;2022-07-29T11:50:27;98216.13;;;21.18;93.88
49611;BME280;35515;48.766;9.176;2022-07-29T11:52:54;98220.75;;;21.33;92.83
49611;BME280;35515;48.766;9.176;2022-07-29T11:55:22;98234.78;;;21.36;91.99
49611;BME280;35515;48.766;9.176;2022-07-29T11:57:52;98233.16;;;21.35;92.91
49611;BME280;35515;48.766;9.176;2022-07-29T12:00:24;98224.31;;;21.38;91.07
49611;BME280;35515;48.766;9.176;2022-07-29T12:02:51;98215.25;;;21.33;87.91
49611;BME280;35515;48.766;9.176;2022-07-29T12:05:18;98213.75;;;21.51;84.73
49611;BME280;35515;48.766;9.176;2022-07-29T12:07:46;98206.41;;;21.36;85.57
49611;BME280;35515;48.766;9.176;2022-07-29T12:10:13;98210.56;;;21.28;88.21
49611;BME280;35515;48.766;9.176;2022-07-29T12:12:40;98218.03;;;21.23;85.64
49611;BME280;35515;48.766;9.176;2022-07-29T12:15:13;98207.00;;;21.28;87.66
49611;BME280;35515;48.766;9.176;2022-07-29T12:17:40;98205.38;;;21.16;87.76
49611;BME280;35515;48.766;9.176;2022-07-29T12:20:07;98213.97;;;21.04;85.69
49611;BME280;35515;48.766;9.176;2022-07-29T12:22:36;98207.13;;;21.02;84.11
49611;BME280;35515;48.766;9.176;2022-07-29T12:25:06;98212.34;;;20.98;86.35
49611;BME280;35515;48.766;9.176;2022-07-29T12:27:33;98201.81;;;21.11;84.92
49611;BME280;35515;48.766;9.176;2022-07-29T12:30:01;98204.31;;;21.07;86.98
49611;BME280;35515;48.766;9.176;2022-07-29T12:32:35;98195.78;;;21.09;85.73
49611;BME280;35515;48.766;9.176;2022-07-29T12:35:03;98201.03;;;21.05;88.32
49611;BME280;35515;48.766;9.176;2022-07-29T12:37:32;98197.97;;;21.12;86.80
49611;BME280;35515;48.766;9.176;2022-07-29T12:39:59;98195.22;;;21.12;87.41
49611;BME280;35515;48.766;9.176;2022-07-29T12:42:26;98189.44;;;21.08;87.43
49611;BME280;35515;48.766;9.176;2022-07-29T12:44:52;98195.97;;;21.28;86.06
49611;BME280;35515;48.766;9.176;2022-07-29T12:47:19;98193.25;;;21.17;83.00
49611;BME280;35515;48.766;9.176;2022-07-29T12:49:48;98200.44;;;21.18;83.12
49611;BME280;35515;48.766;9.176;2022-07-29T12:52:26;98199.63;;;21.18;84.83
49611;BME280;35515;48.766;9.176;2022-07-29T12:54:53;98206.53;;;21.10;85.28
49611;BME280;35515;48.766;9.176;2022-07-29T12:57:20;98215.03;;;21.14;83.87
49611;BME280;35515;48.766;9.176;2022-07-29T12:59:59;98209.81;;;21.07;84.64
49611;BME280;35515;48.766;9.176;2022-07-29T13:02:25;98213.72;;;21.06;84.30
49611;BME280;35515;48.766;9.176;2022-07-29T13:04:58;98207.31;;;21.16;85.05
49611;BME280;35515;48.766;9.176;2022-07-29T13:07:27;98213.91;;;21.20;85.42
49611;BME280;35515;48.766;9.176;2022-07-29T13:10:09;98215.31;;;21.17;86.99
49611;BME280;35515;48.766;9.176;2022-07-29T13:12:36;98221.34;;;21.25;85.96
49611;BME280;35515;48.766;9.176;2022-07-29T13:15:12;98238.88;;;21.39;85.65
49611;BME280;35515;48.766;9.176;2022-07-29T13:17:41;98239.69;;;21.50;84.41